createdAt,value
2022-10-23T00:02:43.213Z,5.27
2022-10-23T00:07:50.177Z,5.45
2022-10-23T00:12:53.833Z,5.41
2022-10-23T00:17:56.388Z,5.38
2022-10-23T00:22:58.995Z,5.45
2022-10-23T00:28:01.599Z,5.29
2022-10-23T00:33:04.164Z,5.23
2022-10-23T00:38:07.307Z,5.12
2022-10-23T00:43:21.682Z,5.29
2022-10-23T00:48:26.829Z,5.29
2022-10-23T00:53:29.464Z,5.21
2022-10-23T00:58:32.261Z,5.24
2022-10-23T01:03:35.312Z,5.10
2022-10-23T01:08:43.817Z,5.06
2022-10-23T01:14:12.257Z,4.98
2022-10-23T01:19:21.546Z,4.93
2022-10-23T01:24:33.217Z,4.92
2022-10-23T01:29:49.883Z,4.76
2022-10-23T01:35:16.340Z,4.52
2022-10-23T01:40:37.799Z,4.25
2022-10-23T01:45:44.616Z,4.07
2022-10-23T01:50:55.686Z,3.82
2022-10-23T01:56:01.328Z,3.91
2022-10-23T02:01:07.224Z,3.77
2022-10-23T02:06:21.801Z,3.71
2022-10-23T02:11:24.618Z,3.55
2022-10-23T02:16:40.678Z,3.49
2022-10-23T02:21:52.680Z,3.40
2022-10-23T02:26:57.919Z,3.36
2022-10-23T02:32:02.121Z,3.16
2022-10-23T02:37:04.878Z,3.24
2022-10-23T02:42:22.725Z,3.22
2022-10-23T02:47:41.123Z,3.16
2022-10-23T02:53:14.469Z,3.07
2022-10-23T02:58:28.241Z,3.00
2022-10-23T03:03:36.020Z,2.96
2022-10-23T03:08:43.379Z,2.96
2022-10-23T03:13:46.021Z,2.94
2022-10-23T03:18:48.916Z,2.74
2022-10-23T03:23:51.597Z,2.88
2022-10-23T03:29:00.453Z,2.79
2022-10-23T03:34:05.186Z,2.76
2022-10-23T03:39:10.662Z,2.75
2022-10-23T03:44:13.447Z,2.69
2022-10-23T03:49:19.720Z,2.42
2022-10-23T03:54:25.117Z,2.63
2022-10-23T03:59:28.748Z,2.53
2022-10-23T04:04:31.453Z,2.65
2022-10-23T04:09:35.248Z,2.57
2022-10-23T04:14:39.311Z,2.53
2022-10-23T04:19:41.865Z,2.54
2022-10-23T04:24:46.806Z,2.53
2022-10-23T04:29:55.602Z,2.55
2022-10-23T04:35:00.952Z,2.65
2022-10-23T04:40:06.415Z,2.82
2022-10-23T04:45:11.552Z,2.80
2022-10-23T04:50:17.246Z,2.99
2022-10-23T04:55:38.271Z,2.97
2022-10-23T05:00:55.564Z,2.97
2022-10-23T05:06:01.422Z,3.14
2022-10-23T05:11:18.958Z,3.32
2022-10-23T05:16:50.473Z,3.46
2022-10-23T05:21:56.088Z,3.58
2022-10-23T05:27:08.648Z,3.68
2022-10-23T05:32:16.615Z,3.65
2022-10-23T05:37:19.845Z,4.02
2022-10-23T05:42:23.208Z,4.20
2022-10-23T05:47:27.626Z,4.47
2022-10-23T05:52:36.082Z,4.69
2022-10-23T05:57:51.422Z,4.74
2022-10-23T06:03:03.837Z,4.82
2022-10-23T06:08:14.666Z,4.86
2022-10-23T06:13:17.265Z,5.03
2022-10-23T06:18:20.001Z,5.11
2022-10-23T06:23:39.263Z,5.05
2022-10-23T06:29:10.968Z,5.22
2022-10-23T06:34:16.111Z,5.23
2022-10-23T06:39:18.634Z,5.58
2022-10-23T06:44:41.470Z,5.68
2022-10-23T06:49:45.216Z,5.95
2022-10-23T06:54:48.022Z,6.20
2022-10-23T06:59:57.243Z,6.25
2022-10-23T07:05:00.868Z,6.36
2022-10-23T07:10:05.922Z,6.50
2022-10-23T07:15:18.974Z,6.60
2022-10-23T07:20:21.940Z,6.63
2022-10-23T07:25:26.590Z,6.69
2022-10-23T07:30:29.591Z,6.65
2022-10-23T07:35:35.575Z,6.73
2022-10-23T07:40:50.133Z,6.89
2022-10-23T07:45:54.204Z,7.31
2022-10-23T07:51:14.535Z,7.16
2022-10-23T07:56:26.290Z,7.08
2022-10-23T08:01:56.844Z,7.20
2022-10-23T08:07:06.027Z,7.19
2022-10-23T08:12:14.983Z,7.20
2022-10-23T08:17:17.584Z,7.17
2022-10-23T08:22:40.546Z,6.78
2022-10-23T08:27:44.209Z,7.20
2022-10-23T08:32:47.196Z,7.07
2022-10-23T08:37:51.016Z,7.08
2022-10-23T08:43:20.724Z,7.06
2022-10-23T08:48:50.827Z,6.91
2022-10-23T08:54:19.867Z,7.19
2022-10-23T08:59:38.052Z,7.50
2022-10-23T09:04:43.820Z,7.44
2022-10-23T09:10:15.855Z,7.53
2022-10-23T09:15:31.316Z,7.66
2022-10-23T09:20:35.549Z,7.60
2022-10-23T09:25:40.032Z,7.50
2022-10-23T09:30:43.171Z,7.24
2022-10-23T09:35:56.888Z,7.03
2022-10-23T09:41:06.208Z,7.12
2022-10-23T09:46:10.864Z,7.19
2022-10-23T09:51:21.007Z,7.23
2022-10-23T09:56:40.536Z,6.99
2022-10-23T10:02:01.572Z,6.64
2022-10-23T10:07:31.187Z,6.85
2022-10-23T10:12:37.776Z,6.73
2022-10-23T10:17:40.424Z,6.87
2022-10-23T10:22:59.027Z,6.77
2022-10-23T10:28:33.997Z,6.92
2022-10-23T10:34:07.538Z,6.93
2022-10-23T10:39:32.300Z,6.68
2022-10-23T10:44:43.698Z,6.83
2022-10-23T10:50:00.640Z,6.84
2022-10-23T10:55:40.843Z,6.65
2022-10-23T11:00:46.719Z,6.82
2022-10-23T11:05:51.799Z,6.90
2022-10-23T11:11:04.329Z,6.87
2022-10-23T11:16:24.923Z,6.80
2022-10-23T11:21:35.699Z,6.71
2022-10-23T11:26:38.431Z,6.59
2022-10-23T11:31:47.052Z,6.45
2022-10-23T11:36:58.649Z,6.33
2022-10-23T11:42:15.780Z,6.50
2022-10-23T11:47:40.021Z,6.55
2022-10-23T11:53:13.033Z,6.53
2022-10-23T11:58:16.077Z,6.53
2022-10-23T12:03:24.611Z,6.65
2022-10-23T12:08:30.785Z,6.57
2022-10-23T12:13:39.418Z,6.51
2022-10-23T12:18:53.484Z,6.29
2022-10-23T12:24:24.964Z,6.15
2022-10-23T12:29:43.930Z,6.35
2022-10-23T12:35:10.952Z,5.84
2022-10-23T12:40:13.701Z,6.39
2022-10-23T12:45:20.636Z,6.28
2022-10-23T12:50:30.305Z,6.36
2022-10-23T12:55:56.839Z,6.40
2022-10-23T13:01:02.474Z,6.38
2022-10-23T13:06:05.389Z,6.31
2022-10-23T13:11:13.777Z,6.14
2022-10-23T13:16:22.692Z,6.25
2022-10-23T13:21:28.807Z,6.27
2022-10-23T13:26:42.915Z,6.38
2022-10-23T13:31:45.461Z,6.30
2022-10-23T13:37:25.028Z,6.34
2022-10-23T13:42:27.905Z,6.39
2022-10-23T13:47:30.476Z,6.52
2022-10-23T13:52:33.066Z,6.52
2022-10-23T13:57:35.614Z,6.40
2022-10-23T14:02:38.385Z,6.34
2022-10-23T14:07:41.135Z,6.43
2022-10-23T14:12:44.745Z,6.36
2022-10-23T14:17:47.858Z,6.35
2022-10-23T14:22:50.523Z,6.37
2022-10-23T14:27:53.100Z,6.46
2022-10-23T14:32:55.737Z,6.43
2022-10-23T14:37:58.711Z,6.39
2022-10-23T14:43:01.446Z,6.35
2022-10-23T14:48:04.183Z,6.39
2022-10-23T14:53:06.776Z,6.34
2022-10-23T14:58:09.554Z,6.52
2022-10-23T15:03:12.147Z,6.51
2022-10-23T15:08:14.707Z,6.58
2022-10-23T15:13:17.509Z,6.57
2022-10-23T15:18:21.621Z,6.56
2022-10-23T15:23:26.125Z,6.56
2022-10-23T15:28:29.690Z,6.53
2022-10-23T15:33:32.272Z,6.60
2022-10-23T15:38:34.836Z,6.71
2022-10-23T15:43:37.466Z,6.65
2022-10-23T15:48:40.203Z,6.72
2022-10-23T15:53:42.824Z,6.52
2022-10-23T15:58:45.414Z,6.55
2022-10-23T16:03:48.168Z,6.51
2022-10-23T16:08:50.961Z,6.50
2022-10-23T16:13:58.093Z,6.61
2022-10-23T16:19:02.882Z,6.66
2022-10-23T16:24:08.197Z,6.71
2022-10-23T16:29:11.697Z,6.74
2022-10-23T16:34:14.356Z,6.70
2022-10-23T16:39:19.066Z,6.73
2022-10-23T16:44:40.300Z,6.72
2022-10-23T16:49:43.499Z,6.79
2022-10-23T16:54:46.126Z,6.75
2022-10-23T16:59:48.750Z,6.69
2022-10-23T17:04:51.336Z,6.63
2022-10-23T17:09:54.145Z,6.77
2022-10-23T17:14:56.978Z,6.73
2022-10-23T17:19:59.697Z,6.83
2022-10-23T17:25:02.354Z,6.84
2022-10-23T17:30:09.292Z,6.89
2022-10-23T17:35:15.259Z,6.98
2022-10-23T17:40:21.471Z,6.92
2022-10-23T17:45:26.789Z,6.94
2022-10-23T17:50:29.459Z,6.94
2022-10-23T17:55:32.033Z,7.01
2022-10-23T18:00:38.271Z,6.90
2022-10-23T18:05:40.860Z,6.92
2022-10-23T18:10:43.427Z,6.92
2022-10-23T18:15:46.551Z,6.93
2022-10-23T18:20:49.127Z,6.89
2022-10-23T18:25:51.761Z,6.89
2022-10-23T18:30:56.873Z,7.03
2022-10-23T18:35:59.882Z,6.94
2022-10-23T18:41:02.448Z,7.00
2022-10-23T18:46:05.815Z,6.90
2022-10-23T18:51:17.419Z,7.05
2022-10-23T18:56:23.589Z,7.13
2022-10-23T19:01:27.563Z,7.14
2022-10-23T19:06:31.453Z,7.08
2022-10-23T19:11:34.124Z,7.14
2022-10-23T19:17:08.346Z,7.16
2022-10-23T19:22:12.398Z,7.03
2022-10-23T19:27:15.195Z,6.66
2022-10-23T19:32:18.074Z,6.61
2022-10-23T19:37:20.686Z,6.58
2022-10-23T19:42:23.302Z,6.65
2022-10-23T19:47:25.844Z,6.64
2022-10-23T19:52:28.824Z,6.47
2022-10-23T19:57:34.020Z,6.71
2022-10-23T20:07:47.780Z,6.64
2022-10-23T20:12:56.527Z,6.57
2022-10-23T20:18:05.940Z,6.57
2022-10-23T20:23:09.542Z,6.46
2022-10-23T20:28:15.161Z,6.46
2022-10-23T20:33:18.843Z,6.36
2022-10-23T20:38:22.940Z,6.37
2022-10-23T20:43:25.512Z,6.32
2022-10-23T20:48:28.187Z,6.39
2022-10-23T20:53:30.824Z,6.32
2022-10-23T20:58:34.046Z,6.13
2022-10-23T21:03:37.426Z,6.22
2022-10-23T21:08:40.937Z,6.17
2022-10-23T21:13:44.589Z,6.20
2022-10-23T21:18:47.721Z,6.32
2022-10-23T21:23:52.956Z,6.25
2022-10-23T21:29:16.927Z,6.21
2022-10-23T21:34:19.021Z,6.14
2022-10-23T21:39:21.536Z,6.02
2022-10-23T21:44:24.210Z,6.02
2022-10-23T21:49:26.865Z,5.94
2022-10-23T21:54:29.463Z,6.01
2022-10-23T21:59:34.812Z,6.04
2022-10-23T22:04:39.460Z,5.95
2022-10-23T22:09:42.853Z,5.88
2022-10-23T22:14:45.547Z,6.00
2022-10-23T22:19:48.128Z,5.98
2022-10-23T22:24:50.701Z,5.90
2022-10-23T22:29:53.861Z,5.64
2022-10-23T22:34:56.541Z,5.87
2022-10-23T22:40:00.189Z,5.93
2022-10-23T22:45:02.764Z,5.98
2022-10-23T22:50:06.745Z,6.09
2022-10-23T22:55:10.076Z,6.03
2022-10-23T23:00:12.997Z,6.08
2022-10-23T23:05:15.514Z,5.91
2022-10-23T23:10:18.038Z,5.95
2022-10-23T23:15:20.621Z,5.94
2022-10-23T23:20:23.155Z,5.77
2022-10-23T23:25:25.680Z,5.92
2022-10-23T23:30:28.302Z,5.89
2022-10-23T23:35:30.937Z,5.87
2022-10-23T23:40:33.781Z,5.94
2022-10-23T23:45:36.292Z,5.91
2022-10-23T23:50:38.897Z,5.95
2022-10-23T23:55:41.514Z,5.98
